sensor_id;sensor_type;location;lat;lon;timestamp;pressure;altitude;pressure_sealevel;temperature;humidity
20037;BME280;10179;42.640;23.312;2023-01-28T00:01:36;93003.25;;;4.39;56.10
20037;BME280;10179;42.640;23.312;2023-01-28T00:04:01;93024.44;;;4.49;56.03
20037;BME280;10179;42.640;23.312;2023-01-28T00:06:26;93033.63;;;4.52;56.21
20037;BME280;10179;42.640;23.312;2023-01-28T00:08:52;93030.81;;;4.53;55.98
20037;BME280;10179;42.640;23.312;2023-01-28T00:11:20;93032.41;;;4.54;55.89
20037;BME280;10179;42.640;23.312;2023-01-28T00:13:50;93041.41;;;4.59;55.92
20037;BME280;10179;42.640;23.312;2023-01-28T00:16:16;93047.63;;;4.58;55.63
20037;BME280;10179;42.640;23.312;2023-01-28T00:18:41;92907.41;;;3.65;55.83
20037;BME280;10179;42.640;23.312;2023-01-28T00:21:10;93048.19;;;4.60;55.61
20037;BME280;10179;42.640;23.312;2023-01-28T00:23:37;93056.44;;;4.57;55.66
20037;BME280;10179;42.640;23.312;2023-01-28T00:26:06;93054.41;;;4.59;55.77
20037;BME280;10179;42.640;23.312;2023-01-28T00:28:32;93054.41;;;4.59;55.87
20037;BME280;10179;42.640;23.312;2023-01-28T00:30:59;93054.41;;;4.59;55.72
20037;BME280;10179;42.640;23.312;2023-01-28T00:33:29;93054.41;;;4.59;55.69
20037;BME280;10179;42.640;23.312;2023-01-28T00:35:59;93038.00;;;4.51;55.73
20037;BME280;10179;42.640;23.312;2023-01-28T00:38:26;92897.44;;;3.48;55.51
20037;BME280;10179;42.640;23.312;2023-01-28T00:40:52;93072.59;;;4.59;55.52
20037;BME280;10179;42.640;23.312;2023-01-28T00:43:17;93082.00;;;4.60;55.38
20037;BME280;10179;42.640;23.312;2023-01-28T00:45:43;93075.03;;;4.60;55.77
20037;BME280;10179;42.640;23.312;2023-01-28T00:48:08;93044.03;;;4.45;55.76
20037;BME280;10179;42.640;23.312;2023-01-28T00:50:33;93063.63;;;4.54;55.64
20037;BME280;10179;42.640;23.312;2023-01-28T00:53:01;92930.19;;;3.63;55.29
20037;BME280;10179;42.640;23.312;2023-01-28T00:55:27;93078.59;;;4.66;55.67
20037;BME280;10179;42.640;23.312;2023-01-28T00:57:52;93083.00;;;4.65;55.30
20037;BME280;10179;42.640;23.312;2023-01-28T01:00:18;93048.03;;;4.41;55.17
20037;BME280;10179;42.640;23.312;2023-01-28T01:02:45;92990.91;;;4.08;55.33
20037;BME280;10179;42.640;23.312;2023-01-28T01:05:10;93076.41;;;4.63;55.26
20037;BME280;10179;42.640;23.312;2023-01-28T01:07:35;92944.56;;;3.78;55.22
20037;BME280;10179;42.640;23.312;2023-01-28T01:10:09;93074.81;;;4.62;55.36
20037;BME280;10179;42.640;23.312;2023-01-28T01:12:35;93034.06;;;4.36;55.43
20037;BME280;10179;42.640;23.312;2023-01-28T01:15:01;93007.28;;;4.22;55.08
20037;BME280;10179;42.640;23.312;2023-01-28T01:17:30;93069.78;;;4.67;55.32
20037;BME280;10179;42.640;23.312;2023-01-28T01:19:55;93079.00;;;4.63;55.24
20037;BME280;10179;42.640;23.312;2023-01-28T01:22:21;93047.22;;;4.41;55.20
20037;BME280;10179;42.640;23.312;2023-01-28T01:24:47;93095.59;;;4.62;55.17
20037;BME280;10179;42.640;23.312;2023-01-28T01:27:12;92974.13;;;3.91;55.23
20037;BME280;10179;42.640;23.312;2023-01-28T01:29:37;92946.75;;;3.75;55.24
20037;BME280;10179;42.640;23.312;2023-01-28T01:32:03;93035.66;;;4.30;54.98
20037;BME280;10179;42.640;23.312;2023-01-28T01:34:29;93086.00;;;4.55;55.08
20037;BME280;10179;42.640;23.312;2023-01-28T01:36:54;93079.22;;;4.54;55.13
20037;BME280;10179;42.640;23.312;2023-01-28T01:39:19;93080.81;;;4.55;55.08
20037;BME280;10179;42.640;23.312;2023-01-28T01:41:45;93081.03;;;4.54;55.17
20037;BME280;10179;42.640;23.312;2023-01-28T01:47:14;93080.41;;;4.52;55.19
20037;BME280;10179;42.640;23.312;2023-01-28T01:49:41;93030.06;;;4.13;55.32
20037;BME280;10179;42.640;23.312;2023-01-28T01:52:10;93083.00;;;4.52;55.38
20037;BME280;10179;42.640;23.312;2023-01-28T01:54:38;93083.22;;;4.50;55.32
20037;BME280;10179;42.640;23.312;2023-01-28T01:57:09;93086.84;;;4.49;55.16
20037;BME280;10179;42.640;23.312;2023-01-28T01:59:38;93079.22;;;4.48;55.40
20037;BME280;10179;42.640;23.312;2023-01-28T02:02:06;93083.22;;;4.50;55.32
20037;BME280;10179;42.640;23.312;2023-01-28T02:04:40;93079.22;;;4.48;55.41
20037;BME280;10179;42.640;23.312;2023-01-28T02:07:12;92860.69;;;2.85;55.25
20037;BME280;10179;42.640;23.312;2023-01-28T02:09:38;93099.22;;;4.47;55.40
20037;BME280;10179;42.640;23.312;2023-01-28T02:12:16;93093.22;;;4.53;55.29
20037;BME280;10179;42.640;23.312;2023-01-28T02:14:48;93090.41;;;4.48;55.36
20037;BME280;10179;42.640;23.312;2023-01-28T02:17:15;93092.03;;;4.43;55.46
20037;BME280;10179;42.640;23.312;2023-01-28T02:25:23;93100.41;;;4.38;55.28
20037;BME280;10179;42.640;23.312;2023-01-28T02:30:32;93012.84;;;3.52;55.71
20037;BME280;10179;42.640;23.312;2023-01-28T02:33:04;93057.03;;;4.05;55.29
20037;BME280;10179;42.640;23.312;2023-01-28T02:35:39;93096.84;;;4.39;55.67
20037;BME280;10179;42.640;23.312;2023-01-28T02:38:34;93098.22;;;4.42;55.53
20037;BME280;10179;42.640;23.312;2023-01-28T02:41:07;93101.63;;;4.42;55.63
20037;BME280;10179;42.640;23.312;2023-01-28T02:43:37;93082.81;;;4.27;55.61
20037;BME280;10179;42.640;23.312;2023-01-28T02:49:05;93069.66;;;4.15;55.54
20037;BME280;10179;42.640;23.312;2023-01-28T02:54:04;93083.63;;;4.27;55.18
20037;BME280;10179;42.640;23.312;2023-01-28T02:59:23;93084.41;;;4.28;55.44
20037;BME280;10179;42.640;23.312;2023-01-28T03:02:03;93100.81;;;4.55;55.23
20037;BME280;10179;42.640;23.312;2023-01-28T03:04:36;93105.22;;;4.41;55.37
20037;BME280;10179;42.640;23.312;2023-01-28T03:07:04;93112.44;;;4.39;55.53
20037;BME280;10179;42.640;23.312;2023-01-28T03:09:32;93104.81;;;4.38;55.57
20037;BME280;10179;42.640;23.312;2023-01-28T03:14:50;93118.81;;;4.43;55.51
20037;BME280;10179;42.640;23.312;2023-01-28T03:17:48;93106.41;;;4.45;55.72
20037;BME280;10179;42.640;23.312;2023-01-28T03:20:40;93107.03;;;4.41;55.50
20037;BME280;10179;42.640;23.312;2023-01-28T03:23:40;93113.63;;;4.43;55.38
20037;BME280;10179;42.640;23.312;2023-01-28T03:26:27;93112.03;;;4.42;55.45
20037;BME280;10179;42.640;23.312;2023-01-28T03:29:16;93057.66;;;4.07;55.42
20037;BME280;10179;42.640;23.312;2023-01-28T03:32:01;92999.28;;;3.70;55.14
20037;BME280;10179;42.640;23.312;2023-01-28T03:34:46;93109.84;;;4.39;55.29
20037;BME280;10179;42.640;23.312;2023-01-28T03:37:31;93108.22;;;4.38;55.25
20037;BME280;10179;42.640;23.312;2023-01-28T03:40:05;93110.81;;;4.38;55.16
20037;BME280;10179;42.640;23.312;2023-01-28T03:42:31;93001.28;;;3.62;55.16
20037;BME280;10179;42.640;23.312;2023-01-28T03:44:57;93114.81;;;4.34;55.34
20037;BME280;10179;42.640;23.312;2023-01-28T03:47:25;93120.81;;;4.35;55.13
20037;BME280;10179;42.640;23.312;2023-01-28T03:49:52;93114.81;;;4.34;55.13
20037;BME280;10179;42.640;23.312;2023-01-28T03:52:20;93114.81;;;4.34;54.81
20037;BME280;10179;42.640;23.312;2023-01-28T03:54:46;93107.63;;;4.23;54.95
20037;BME280;10179;42.640;23.312;2023-01-28T03:57:17;93034.44;;;3.73;54.84
20037;BME280;10179;42.640;23.312;2023-01-28T03:59:43;93106.41;;;4.19;54.75
20037;BME280;10179;42.640;23.312;2023-01-28T04:02:10;93128.19;;;4.31;54.81
20037;BME280;10179;42.640;23.312;2023-01-28T04:04:39;93070.81;;;3.99;54.86
20037;BME280;10179;42.640;23.312;2023-01-28T04:07:05;92972.06;;;3.26;54.56
20037;BME280;10179;42.640;23.312;2023-01-28T04:09:36;93068.81;;;3.88;54.52
20037;BME280;10179;42.640;23.312;2023-01-28T04:12:02;92981.25;;;3.29;54.55
20037;BME280;10179;42.640;23.312;2023-01-28T04:14:28;93137.41;;;4.27;54.71
20037;BME280;10179;42.640;23.312;2023-01-28T04:16:54;93135.81;;;4.26;54.60
20037;BME280;10179;42.640;23.312;2023-01-28T04:19:20;93060.00;;;3.63;54.42
20037;BME280;10179;42.640;23.312;2023-01-28T04:21:46;92982.03;;;3.23;54.20
20037;BME280;10179;42.640;23.312;2023-01-28T04:24:12;93146.38;;;4.24;54.74
20037;BME280;10179;42.640;23.312;2023-01-28T04:26:38;93017.03;;;3.47;54.29
20037;BME280;10179;42.640;23.312;2023-01-28T04:29:03;93100.22;;;3.93;54.49
20037;BME280;10179;42.640;23.312;2023-01-28T04:31:29;93197.38;;;4.25;54.47
20037;BME280;10179;42.640;23.312;2023-01-28T04:33:54;93163.38;;;4.27;54.54
20037;BME280;10179;42.640;23.312;2023-01-28T04:36:20;93154.19;;;4.24;54.47
20037;BME280;10179;42.640;23.312;2023-01-28T04:38:45;93156.78;;;4.24;54.57
20037;BME280;10179;42.640;23.312;2023-01-28T04:41:11;93117.16;;;3.89;54.46
20037;BME280;10179;42.640;23.312;2023-01-28T04:43:36;93163.19;;;4.22;54.58
20037;BME280;10179;42.640;23.312;2023-01-28T04:46:01;93168.78;;;4.19;54.53
20037;BME280;10179;42.640;23.312;2023-01-28T04:48:27;93084.38;;;3.62;54.60
20037;BME280;10179;42.640;23.312;2023-01-28T04:50:55;93167.19;;;4.18;54.57
20037;BME280;10179;42.640;23.312;2023-01-28T04:53:20;93147.34;;;4.03;54.61
20037;BME280;10179;42.640;23.312;2023-01-28T04:55:46;93040.53;;;3.25;54.26
20037;BME280;10179;42.640;23.312;2023-01-28T04:58:11;93066.53;;;3.45;54.58
20037;BME280;10179;42.640;23.312;2023-01-28T05:00:37;93140.16;;;3.92;54.63
20037;BME280;10179;42.640;23.312;2023-01-28T05:03:02;93043.75;;;3.27;54.47
20037;BME280;10179;42.640;23.312;2023-01-28T05:05:28;93174.59;;;4.14;54.68
20037;BME280;10179;42.640;23.312;2023-01-28T05:07:55;93186.75;;;4.14;54.65
20037;BME280;10179;42.640;23.312;2023-01-28T05:10:21;93065.72;;;3.38;54.56
20037;BME280;10179;42.640;23.312;2023-01-28T05:12:47;93081.09;;;3.46;54.66
20037;BME280;10179;42.640;23.312;2023-01-28T05:15:14;93092.50;;;3.45;54.64
20037;BME280;10179;42.640;23.312;2023-01-28T05:17:40;93200.75;;;4.13;54.66
20037;BME280;10179;42.640;23.312;2023-01-28T05:20:07;93200.94;;;4.11;54.91
20037;BME280;10179;42.640;23.312;2023-01-28T05:22:33;93198.34;;;4.11;54.86
20037;BME280;10179;42.640;23.312;2023-01-28T05:24:59;93073.06;;;3.28;54.56
20037;BME280;10179;42.640;23.312;2023-01-28T05:27:25;93202.72;;;4.11;54.74
20037;BME280;10179;42.640;23.312;2023-01-28T05:29:51;93207.94;;;4.11;54.73
20037;BME280;10179;42.640;23.312;2023-01-28T05:32:16;93197.13;;;4.07;54.81
20037;BME280;10179;42.640;23.312;2023-01-28T05:34:41;93154.59;;;3.53;54.59
20037;BME280;10179;42.640;23.312;2023-01-28T05:37:07;93214.75;;;4.12;54.81
20037;BME280;10179;42.640;23.312;2023-01-28T05:39:32;93213.13;;;4.11;54.69
20037;BME280;10179;42.640;23.312;2023-01-28T05:41:57;93215.13;;;4.09;54.74
20037;BME280;10179;42.640;23.312;2023-01-28T05:44:23;93118.44;;;3.45;54.79
20037;BME280;10179;42.640;23.312;2023-01-28T05:46:49;93220.31;;;4.09;54.92
20037;BME280;10179;42.640;23.312;2023-01-28T05:49:15;93217.34;;;4.12;54.88
20037;BME280;10179;42.640;23.312;2023-01-28T05:51:41;93217.94;;;4.14;54.82
20037;BME280;10179;42.640;23.312;2023-01-28T05:54:07;93142.28;;;3.62;54.68
20037;BME280;10179;42.640;23.312;2023-01-28T05:56:33;93051.06;;;3.10;54.67
20037;BME280;10179;42.640;23.312;2023-01-28T05:59:01;93192.81;;;3.66;54.55
20037;BME280;10179;42.640;23.312;2023-01-28T06:01:26;93220.34;;;4.15;54.80
20037;BME280;10179;42.640;23.312;2023-01-28T06:03:51;93218.31;;;4.11;54.38
20037;BME280;10179;42.640;23.312;2023-01-28T06:06:17;93229.94;;;4.15;54.54
20037;BME280;10179;42.640;23.312;2023-01-28T06:08:42;93151.03;;;3.61;54.58
20037;BME280;10179;42.640;23.312;2023-01-28T06:11:07;93241.13;;;4.15;54.68
20037;BME280;10179;42.640;23.312;2023-01-28T06:13:33;93153.47;;;3.63;54.72
20037;BME280;10179;42.640;23.312;2023-01-28T06:15:58;93186.66;;;3.80;54.71
20037;BME280;10179;42.640;23.312;2023-01-28T06:18:24;93253.91;;;4.17;54.55
20037;BME280;10179;42.640;23.312;2023-01-28T06:20:49;93255.53;;;4.18;54.77
20037;BME280;10179;42.640;23.312;2023-01-28T06:23:15;93261.13;;;4.15;54.57
20037;BME280;10179;42.640;23.312;2023-01-28T06:25:40;93256.72;;;4.15;54.65
20037;BME280;10179;42.640;23.312;2023-01-28T06:28:06;93096.97;;;3.10;54.32
20037;BME280;10179;42.640;23.312;2023-01-28T06:30:31;93247.88;;;4.03;54.52
20037;BME280;10179;42.640;23.312;2023-01-28T06:32:56;93165.75;;;3.47;54.32
20037;BME280;10179;42.640;23.312;2023-01-28T06:35:22;93272.31;;;4.15;54.69
20037;BME280;10179;42.640;23.312;2023-01-28T06:37:48;93229.03;;;3.81;54.65
20037;BME280;10179;42.640;23.312;2023-01-28T06:40:13;93277.31;;;4.17;54.56
20037;BME280;10179;42.640;23.312;2023-01-28T06:42:39;93243.44;;;3.90;54.64
20037;BME280;10179;42.640;23.312;2023-01-28T06:45:05;93190.53;;;3.50;54.76
20037;BME280;10179;42.640;23.312;2023-01-28T06:47:30;93274.66;;;4.03;54.76
20037;BME280;10179;42.640;23.312;2023-01-28T06:49:55;93273.69;;;4.04;54.76
20037;BME280;10179;42.640;23.312;2023-01-28T06:52:21;93102.94;;;2.76;54.68
20037;BME280;10179;42.640;23.312;2023-01-28T06:54:46;93303.53;;;4.22;54.81
20037;BME280;10179;42.640;23.312;2023-01-28T06:57:11;93299.13;;;4.22;54.70
20037;BME280;10179;42.640;23.312;2023-01-28T06:59:37;93306.13;;;4.22;54.67
20037;BME280;10179;42.640;23.312;2023-01-28T07:02:02;93301.09;;;4.20;54.68
20037;BME280;10179;42.640;23.312;2023-01-28T07:04:28;93234.25;;;3.46;54.62
20037;BME280;10179;42.640;23.312;2023-01-28T07:06:54;93317.91;;;4.18;54.74
20037;BME280;10179;42.640;23.312;2023-01-28T07:09:19;93124.78;;;2.88;54.68
20037;BME280;10179;42.640;23.312;2023-01-28T07:11:44;93319.13;;;4.22;54.66
20037;BME280;10179;42.640;23.312;2023-01-28T07:14:10;93325.13;;;4.22;54.82
20037;BME280;10179;42.640;23.312;2023-01-28T07:16:35;93321.91;;;4.20;54.71
20037;BME280;10179;42.640;23.312;2023-01-28T07:19:01;93313.91;;;4.15;54.87
20037;BME280;10179;42.640;23.312;2023-01-28T07:21:26;93335.13;;;4.25;54.66
20037;BME280;10179;42.640;23.312;2023-01-28T07:23:52;93080.91;;;2.58;54.74
20037;BME280;10179;42.640;23.312;2023-01-28T07:26:17;93203.28;;;3.38;54.52
20037;BME280;10179;42.640;23.312;2023-01-28T07:28:44;93090.69;;;2.56;54.38
20037;BME280;10179;42.640;23.312;2023-01-28T07:31:10;93359.69;;;4.23;54.78
20037;BME280;10179;42.640;23.312;2023-01-28T07:33:35;93324.66;;;4.12;54.74
20037;BME280;10179;42.640;23.312;2023-01-28T07:36:01;93246.28;;;3.61;54.96
20037;BME280;10179;42.640;23.312;2023-01-28T07:38:26;93087.09;;;2.57;54.80
20037;BME280;10179;42.640;23.312;2023-01-28T07:40:51;93356.34;;;4.29;54.84
20037;BME280;10179;42.640;23.312;2023-01-28T07:43:17;93275.50;;;3.69;54.91
20037;BME280;10179;42.640;23.312;2023-01-28T07:45:42;93353.94;;;4.34;54.72
20037;BME280;10179;42.640;23.312;2023-01-28T07:48:11;93358.75;;;4.37;54.78
20037;BME280;10179;42.640;23.312;2023-01-28T07:50:37;93342.72;;;4.27;54.78
20037;BME280;10179;42.640;23.312;2023-01-28T07:53:08;93364.19;;;4.42;54.71
20037;BME280;10179;42.640;23.312;2023-01-28T07:55:34;93364.38;;;4.41;54.51
20037;BME280;10179;42.640;23.312;2023-01-28T07:58:01;93276.97;;;3.85;54.76
20037;BME280;10179;42.640;23.312;2023-01-28T08:00:29;93365.78;;;4.43;54.55
20037;BME280;10179;42.640;23.312;2023-01-28T08:02:59;93371.56;;;4.45;54.53
20037;BME280;10179;42.640;23.312;2023-01-28T08:05:29;93394.38;;;4.43;54.78
20037;BME280;10179;42.640;23.312;2023-01-28T08:07:57;93350.34;;;4.35;54.51
20037;BME280;10179;42.640;23.312;2023-01-28T08:10:22;93188.88;;;3.35;54.43
20037;BME280;10179;42.640;23.312;2023-01-28T08:12:52;93271.78;;;3.85;54.69
20037;BME280;10179;42.640;23.312;2023-01-28T08:15:17;93136.88;;;3.09;54.47
20037;BME280;10179;42.640;23.312;2023-01-28T08:17:43;93371.66;;;4.65;54.63
20037;BME280;10179;42.640;23.312;2023-01-28T08:20:09;93330.41;;;4.42;54.42
20037;BME280;10179;42.640;23.312;2023-01-28T08:22:34;93378.31;;;4.74;54.39
20037;BME280;10179;42.640;23.312;2023-01-28T08:25:00;93363.06;;;4.65;53.54
20037;BME280;10179;42.640;23.312;2023-01-28T08:27:25;93378.72;;;4.78;54.00
20037;BME280;10179;42.640;23.312;2023-01-28T08:29:50;93360.06;;;4.68;53.93
20037;BME280;10179;42.640;23.312;2023-01-28T08:32:16;93315.97;;;4.40;53.89
20037;BME280;10179;42.640;23.312;2023-01-28T08:34:41;93387.34;;;4.85;53.80
20037;BME280;10179;42.640;23.312;2023-01-28T08:37:07;93380.13;;;4.87;53.86
20037;BME280;10179;42.640;23.312;2023-01-28T08:39:32;93384.94;;;4.90;53.87
20037;BME280;10179;42.640;23.312;2023-01-28T08:41:57;93388.16;;;4.92;53.58
20037;BME280;10179;42.640;23.312;2023-01-28T08:44:23;93293.56;;;4.32;53.42
20037;BME280;10179;42.640;23.312;2023-01-28T08:46:48;93386.13;;;4.94;53.65
20037;BME280;10179;42.640;23.312;2023-01-28T08:49:13;93381.34;;;4.98;53.51
20037;BME280;10179;42.640;23.312;2023-01-28T08:51:39;93384.56;;;5.00;53.38
20037;BME280;10179;42.640;23.312;2023-01-28T08:54:04;93285.16;;;4.30;53.14
20037;BME280;10179;42.640;23.312;2023-01-28T08:56:30;93355.50;;;4.83;53.17
20037;BME280;10179;42.640;23.312;2023-01-28T08:58:55;93390.97;;;5.04;53.08
20037;BME280;10179;42.640;23.312;2023-01-28T09:01:20;93366.56;;;4.98;53.17
20037;BME280;10179;42.640;23.312;2023-01-28T09:03:46;93320.06;;;4.69;52.99
20037;BME280;10179;42.640;23.312;2023-01-28T09:06:11;93362.16;;;5.06;52.83
20037;BME280;10179;42.640;23.312;2023-01-28T09:08:37;93387.22;;;5.20;52.72
20037;BME280;10179;42.640;23.312;2023-01-28T09:11:02;93273.97;;;4.29;52.75
20037;BME280;10179;42.640;23.312;2023-01-28T09:13:27;93299.25;;;4.69;52.44
20037;BME280;10179;42.640;23.312;2023-01-28T09:15:54;93385.03;;;5.30;52.80
20037;BME280;10179;42.640;23.312;2023-01-28T09:18:19;93362.34;;;5.11;52.70
20037;BME280;10179;42.640;23.312;2023-01-28T09:20:45;93391.44;;;5.34;52.57
20037;BME280;10179;42.640;23.312;2023-01-28T09:23:11;93394.63;;;5.36;53.14
20037;BME280;10179;42.640;23.312;2023-01-28T09:25:36;93367.75;;;5.16;52.93
20037;BME280;10179;42.640;23.312;2023-01-28T09:28:02;93387.81;;;5.42;52.77
20037;BME280;10179;42.640;23.312;2023-01-28T09:30:28;93354.97;;;5.21;52.63
20037;BME280;10179;42.640;23.312;2023-01-28T09:32:55;93108.31;;;3.64;52.54
20037;BME280;10179;42.640;23.312;2023-01-28T09:35:22;93390.22;;;5.43;52.54
20037;BME280;10179;42.640;23.312;2023-01-28T09:37:48;93386.63;;;5.44;52.57
20037;BME280;10179;42.640;23.312;2023-01-28T09:40:18;93389.44;;;5.49;52.55
20037;BME280;10179;42.640;23.312;2023-01-28T09:45:33;93388.63;;;5.42;52.35
20037;BME280;10179;42.640;23.312;2023-01-28T09:48:02;93394.84;;;5.41;52.05
20037;BME280;10179;42.640;23.312;2023-01-28T09:50:35;93375.81;;;5.41;52.36
20037;BME280;10179;42.640;23.312;2023-01-28T09:53:20;93382.63;;;5.48;52.39
20037;BME280;10179;42.640;23.312;2023-01-28T09:56:44;93382.63;;;5.48;52.66
20037;BME280;10179;42.640;23.312;2023-01-28T09:58:45;93330.50;;;5.09;52.62
20037;BME280;10179;42.640;23.312;2023-01-28T10:01:38;93270.88;;;4.74;52.41
20037;BME280;10179;42.640;23.312;2023-01-28T10:04:08;93390.22;;;5.50;52.52
20037;BME280;10179;42.640;23.312;2023-01-28T10:12:17;93381.00;;;5.47;52.03
20037;BME280;10179;42.640;23.312;2023-01-28T10:17:42;93376.81;;;5.46;52.47
20037;BME280;10179;42.640;23.312;2023-01-28T10:22:44;93326.13;;;4.96;52.73
20037;BME280;10179;42.640;23.312;2023-01-28T10:25:21;93383.78;;;5.26;52.40
20037;BME280;10179;42.640;23.312;2023-01-28T10:27:48;93367.38;;;5.32;52.79
20037;BME280;10179;42.640;23.312;2023-01-28T10:32:52;93381.81;;;5.41;52.59
20037;BME280;10179;42.640;23.312;2023-01-28T10:35:20;93389.41;;;5.36;52.49
20037;BME280;10179;42.640;23.312;2023-01-28T10:37:46;93364.75;;;5.19;52.52
20037;BME280;10179;42.640;23.312;2023-01-28T10:40:16;93372.59;;;5.25;52.87
20037;BME280;10179;42.640;23.312;2023-01-28T10:42:42;93384.59;;;5.33;52.72
20037;BME280;10179;42.640;23.312;2023-01-28T10:45:24;93383.81;;;5.39;53.08
20037;BME280;10179;42.640;23.312;2023-01-28T10:48:29;93369.19;;;5.45;52.82
20037;BME280;10179;42.640;23.312;2023-01-28T10:50:59;93345.34;;;5.08;53.05
20037;BME280;10179;42.640;23.312;2023-01-28T10:53:41;93360.59;;;5.31;53.05
20037;BME280;10179;42.640;23.312;2023-01-28T10:56:17;93376.63;;;5.41;53.14
20037;BME280;10179;42.640;23.312;2023-01-28T11:01:47;93374.59;;;5.43;53.51
20037;BME280;10179;42.640;23.312;2023-01-28T11:07:35;93349.75;;;5.47;53.58
20037;BME280;10179;42.640;23.312;2023-01-28T11:09:36;93379.03;;;5.63;53.44
20037;BME280;10179;42.640;23.312;2023-01-28T11:12:16;93381.41;;;5.71;53.27
20037;BME280;10179;42.640;23.312;2023-01-28T11:14:52;93373.00;;;5.69;53.09
20037;BME280;10179;42.640;23.312;2023-01-28T11:17:19;93370.19;;;5.64;52.87
20037;BME280;10179;42.640;23.312;2023-01-28T11:19:45;93343.34;;;5.43;52.74
20037;BME280;10179;42.640;23.312;2023-01-28T11:22:35;93372.59;;;5.72;52.70
20037;BME280;10179;42.640;23.312;2023-01-28T11:25:05;93332.94;;;5.43;52.68
20037;BME280;10179;42.640;23.312;2023-01-28T11:27:38;93378.22;;;5.62;52.61
20037;BME280;10179;42.640;23.312;2023-01-28T11:30:04;93366.56;;;5.65;52.82
20037;BME280;10179;42.640;23.312;2023-01-28T11:32:32;93339.34;;;5.47;52.50
20037;BME280;10179;42.640;23.312;2023-01-28T11:34:57;93158.00;;;4.15;52.24
20037;BME280;10179;42.640;23.312;2023-01-28T11:37:26;93369.19;;;5.65;52.07
20037;BME280;10179;42.640;23.312;2023-01-28T11:40:15;93369.78;;;5.67;52.03
20037;BME280;10179;42.640;23.312;2023-01-28T11:42:44;93369.00;;;5.60;51.94
20037;BME280;10179;42.640;23.312;2023-01-28T11:45:19;93333.75;;;5.37;52.14
20037;BME280;10179;42.640;23.312;2023-01-28T11:48:02;93363.56;;;5.61;51.92
20037;BME280;10179;42.640;23.312;2023-01-28T11:50:37;93366.19;;;5.61;51.83
20037;BME280;10179;42.640;23.312;2023-01-28T11:53:29;93363.97;;;5.65;51.79
20037;BME280;10179;42.640;23.312;2023-01-28T12:01:37;93357.97;;;5.58;51.98
20037;BME280;10179;42.640;23.312;2023-01-28T12:12:37;93367.78;;;5.75;52.01
20037;BME280;10179;42.640;23.312;2023-01-28T12:18:46;93295.28;;;5.33;51.92
20037;BME280;10179;42.640;23.312;2023-01-28T12:29:46;93376.00;;;5.79;51.30
20037;BME280;10179;42.640;23.312;2023-01-28T12:41:08;93358.19;;;5.63;51.73
20037;BME280;10179;42.640;23.312;2023-01-28T12:47:07;93376.59;;;5.88;51.92
20037;BME280;10179;42.640;23.312;2023-01-28T12:49:38;93388.22;;;5.85;51.72
20037;BME280;10179;42.640;23.312;2023-01-28T12:52:12;93390.81;;;5.85;51.44
20037;BME280;10179;42.640;23.312;2023-01-28T12:55:00;93398.47;;;5.93;51.82
20037;BME280;10179;42.640;23.312;2023-01-28T12:57:31;93399.47;;;5.92;52.10
20037;BME280;10179;42.640;23.312;2023-01-28T13:05:54;93403.84;;;5.85;51.25
20037;BME280;10179;42.640;23.312;2023-01-28T13:08:27;93395.03;;;5.86;51.34
20037;BME280;10179;42.640;23.312;2023-01-28T13:10:54;93405.06;;;5.83;51.51
20037;BME280;10179;42.640;23.312;2023-01-28T13:13:36;93405.88;;;5.83;51.27
20037;BME280;10179;42.640;23.312;2023-01-28T13:16:04;93425.69;;;5.71;51.28
20037;BME280;10179;42.640;23.312;2023-01-28T13:21:06;93406.28;;;5.80;51.54
20037;BME280;10179;42.640;23.312;2023-01-28T13:28:46;93409.44;;;5.82;51.55
20037;BME280;10179;42.640;23.312;2023-01-28T13:31:14;93329.75;;;5.28;51.71
20037;BME280;10179;42.640;23.312;2023-01-28T13:33:47;93401.44;;;5.77;51.63
20037;BME280;10179;42.640;23.312;2023-01-28T13:36:27;93412.69;;;5.84;51.39
20037;BME280;10179;42.640;23.312;2023-01-28T13:41:38;93430.31;;;5.82;51.00
20037;BME280;10179;42.640;23.312;2023-01-28T13:44:19;93426.91;;;5.88;51.46
20037;BME280;10179;42.640;23.312;2023-01-28T13:46:45;93442.75;;;5.87;51.42
20037;BME280;10179;42.640;23.312;2023-01-28T13:49:15;93434.31;;;5.91;51.60
20037;BME280;10179;42.640;23.312;2023-01-28T13:52:00;93415.88;;;5.86;51.30
20037;BME280;10179;42.640;23.312;2023-01-28T13:54:31;93436.75;;;5.93;51.50
20037;BME280;10179;42.640;23.312;2023-01-28T14:08:18;93352.38;;;5.34;51.15
20037;BME280;10179;42.640;23.312;2023-01-28T14:16:43;93363.97;;;5.25;51.90
20037;BME280;10179;42.640;23.312;2023-01-28T14:19:18;93454.38;;;5.78;51.70
20037;BME280;10179;42.640;23.312;2023-01-28T14:21:45;93432.69;;;5.50;51.84
20037;BME280;10179;42.640;23.312;2023-01-28T14:24:15;93461.97;;;5.72;51.66
20037;BME280;10179;42.640;23.312;2023-01-28T14:31:42;93468.56;;;5.48;52.10
20037;BME280;10179;42.640;23.312;2023-01-28T14:34:28;93467.16;;;5.53;52.46
20037;BME280;10179;42.640;23.312;2023-01-28T14:36:57;93362.09;;;4.79;52.46
20037;BME280;10179;42.640;23.312;2023-01-28T14:39:27;93457.50;;;5.33;52.70
20037;BME280;10179;42.640;23.312;2023-01-28T14:41:55;93465.34;;;5.46;52.70
20037;BME280;10179;42.640;23.312;2023-01-28T14:44:35;93476.38;;;5.48;52.79
20037;BME280;10179;42.640;23.312;2023-01-28T14:55:55;93406.53;;;4.84;53.08
20037;BME280;10179;42.640;23.312;2023-01-28T14:58:28;93487.53;;;5.29;52.97
20037;BME280;10179;42.640;23.312;2023-01-28T15:00:59;93486.72;;;5.22;52.85
20037;BME280;10179;42.640;23.312;2023-01-28T15:03:27;93489.50;;;5.14;53.13
20037;BME280;10179;42.640;23.312;2023-01-28T15:06:12;93485.50;;;5.18;53.32
20037;BME280;10179;42.640;23.312;2023-01-28T15:08:38;93418.81;;;4.55;53.28
20037;BME280;10179;42.640;23.312;2023-01-28T15:11:05;93494.06;;;5.05;53.50
20037;BME280;10179;42.640;23.312;2023-01-28T15:13:37;93443.31;;;4.68;53.66
20037;BME280;10179;42.640;23.312;2023-01-28T15:16:04;93330.56;;;3.93;53.72
20037;BME280;10179;42.640;23.312;2023-01-28T15:20:58;93407.09;;;4.31;54.00
20037;BME280;10179;42.640;23.312;2023-01-28T15:23:33;93475.38;;;4.82;54.05